sensor_id;sensor_type;location;lat;lon;timestamp;pressure;altitude;pressure_sealevel;temperature;humidity
41632;BME280;37452;51.938;4.624;2023-02-20T00:00:32;78440.78;;;-142.75;100.00
41632;BME280;37452;51.938;4.624;2023-02-20T00:02:58;78448.66;;;-142.75;100.00
41632;BME280;37452;51.938;4.624;2023-02-20T00:05:23;78425.03;;;-142.75;100.00
41632;BME280;37452;51.938;4.624;2023-02-20T00:07:49;78436.84;;;-142.75;100.00
41632;BME280;37452;51.938;4.624;2023-02-20T00:10:15;78428.97;;;-142.75;100.00
41632;BME280;37452;51.938;4.624;2023-02-20T00:12:40;78438.81;;;-142.75;100.00
41632;BME280;37452;51.938;4.624;2023-02-20T00:15:06;78444.72;;;-142.75;100.00
41632;BME280;37452;51.938;4.624;2023-02-20T00:17:32;78428.97;;;-142.75;100.00
41632;BME280;37452;51.938;4.624;2023-02-20T00:19:57;78428.97;;;-142.75;100.00
41632;BME280;37452;51.938;4.624;2023-02-20T00:22:24;78432.91;;;-142.75;100.00
41632;BME280;37452;51.938;4.624;2023-02-20T00:24:50;78436.84;;;-142.75;100.00
41632;BME280;37452;51.938;4.624;2023-02-20T00:27:15;78427.00;;;-142.75;100.00
41632;BME280;37452;51.938;4.624;2023-02-20T00:29:43;78425.03;;;-142.75;100.00
41632;BME280;37452;51.938;4.624;2023-02-20T00:32:08;78432.91;;;-142.75;100.00
41632;BME280;37452;51.938;4.624;2023-02-20T00:34:33;78405.34;;;-142.75;100.00
41632;BME280;37452;51.938;4.624;2023-02-20T00:36:59;78413.22;;;-142.75;100.00
41632;BME280;37452;51.938;4.624;2023-02-20T00:39:24;78413.22;;;-142.75;100.00
41632;BME280;37452;51.938;4.624;2023-02-20T00:41:49;78409.28;;;-142.75;100.00
41632;BME280;37452;51.938;4.624;2023-02-20T00:44:15;78407.31;;;-142.75;100.00
41632;BME280;37452;51.938;4.624;2023-02-20T00:46:40;78405.34;;;-142.75;100.00
41632;BME280;37452;51.938;4.624;2023-02-20T00:49:06;78397.44;;;-142.75;100.00
41632;BME280;37452;51.938;4.624;2023-02-20T00:51:31;78389.56;;;-142.75;100.00
41632;BME280;37452;51.938;4.624;2023-02-20T00:53:58;78397.44;;;-142.75;100.00
41632;BME280;37452;51.938;4.624;2023-02-20T00:56:24;78399.44;;;-142.75;100.00
41632;BME280;37452;51.938;4.624;2023-02-20T00:58:49;78387.59;;;-142.75;100.00
41632;BME280;37452;51.938;4.624;2023-02-20T01:01:14;78373.81;;;-142.75;100.00
41632;BME280;37452;51.938;4.624;2023-02-20T01:03:40;78346.25;;;-142.75;100.00
41632;BME280;37452;51.938;4.624;2023-02-20T01:06:06;78338.38;;;-142.75;100.00
41632;BME280;37452;51.938;4.624;2023-02-20T01:08:31;78326.56;;;-142.75;100.00
41632;BME280;37452;51.938;4.624;2023-02-20T01:10:56;78314.75;;;-142.75;100.00
41632;BME280;37452;51.938;4.624;2023-02-20T01:13:21;78326.56;;;-142.75;100.00
41632;BME280;37452;51.938;4.624;2023-02-20T01:15:47;78326.56;;;-142.75;100.00
41632;BME280;37452;51.938;4.624;2023-02-20T01:18:12;78318.69;;;-142.75;100.00
41632;BME280;37452;51.938;4.624;2023-02-20T01:20:37;78328.53;;;-142.75;100.00
41632;BME280;37452;51.938;4.624;2023-02-20T01:23:02;78304.91;;;-142.75;100.00
41632;BME280;37452;51.938;4.624;2023-02-20T01:25:28;78306.88;;;-142.75;100.00
41632;BME280;37452;51.938;4.624;2023-02-20T01:27:54;78299.00;;;-142.75;100.00
41632;BME280;37452;51.938;4.624;2023-02-20T01:30:19;78287.16;;;-142.75;100.00
41632;BME280;37452;51.938;4.624;2023-02-20T01:32:45;78283.22;;;-142.75;100.00
41632;BME280;37452;51.938;4.624;2023-02-20T01:35:10;78269.44;;;-142.75;100.00
41632;BME280;37452;51.938;4.624;2023-02-20T01:37:35;78245.81;;;-142.75;100.00
41632;BME280;37452;51.938;4.624;2023-02-20T01:40:02;78243.84;;;-142.75;100.00
41632;BME280;37452;51.938;4.624;2023-02-20T01:42:30;78245.81;;;-142.75;100.00
41632;BME280;37452;51.938;4.624;2023-02-20T01:45:27;78239.91;;;-142.75;100.00
41632;BME280;37452;51.938;4.624;2023-02-20T01:47:55;78226.13;;;-142.75;100.00
41632;BME280;37452;51.938;4.624;2023-02-20T01:50:24;78222.19;;;-142.75;100.00
41632;BME280;37452;51.938;4.624;2023-02-20T01:52:53;78206.44;;;-142.75;100.00
41632;BME280;37452;51.938;4.624;2023-02-20T01:57:52;78194.63;;;-142.75;100.00
41632;BME280;37452;51.938;4.624;2023-02-20T02:00:21;78184.78;;;-142.75;100.00
41632;BME280;37452;51.938;4.624;2023-02-20T02:03:01;78192.66;;;-142.75;100.00
41632;BME280;37452;51.938;4.624;2023-02-20T02:05:30;78196.59;;;-142.75;100.00
41632;BME280;37452;51.938;4.624;2023-02-20T02:07:58;78192.66;;;-142.75;100.00
41632;BME280;37452;51.938;4.624;2023-02-20T02:13:20;78172.94;;;-142.75;100.00
41632;BME280;37452;51.938;4.624;2023-02-20T02:15:45;78172.94;;;-142.75;100.00
41632;BME280;37452;51.938;4.624;2023-02-20T02:18:24;78174.91;;;-142.75;100.00
41632;BME280;37452;51.938;4.624;2023-02-20T02:32:22;78131.59;;;-142.75;100.00
41632;BME280;37452;51.938;4.624;2023-02-20T02:38:02;78155.22;;;-142.75;100.00
41632;BME280;37452;51.938;4.624;2023-02-20T02:43:12;78155.22;;;-142.75;100.00
41632;BME280;37452;51.938;4.624;2023-02-20T02:45:45;78149.31;;;-142.75;100.00
41632;BME280;37452;51.938;4.624;2023-02-20T02:48:34;78141.44;;;-142.75;100.00
41632;BME280;37452;51.938;4.624;2023-02-20T02:51:11;78157.19;;;-142.75;100.00
41632;BME280;37452;51.938;4.624;2023-02-20T02:53:37;78153.25;;;-142.75;100.00
41632;BME280;37452;51.938;4.624;2023-02-20T02:56:03;78149.31;;;-142.75;100.00
41632;BME280;37452;51.938;4.624;2023-02-20T02:58:47;78137.50;;;-142.75;100.00
41632;BME280;37452;51.938;4.624;2023-02-20T03:01:14;78137.50;;;-142.75;100.00
41632;BME280;37452;51.938;4.624;2023-02-20T03:03:42;78123.72;;;-142.75;100.00
41632;BME280;37452;51.938;4.624;2023-02-20T03:06:13;78125.69;;;-142.75;100.00
41632;BME280;37452;51.938;4.624;2023-02-20T03:08:47;78121.75;;;-142.75;100.00
41632;BME280;37452;51.938;4.624;2023-02-20T03:11:21;78119.78;;;-142.75;100.00
41632;BME280;37452;51.938;4.624;2023-02-20T03:14:03;78100.09;;;-142.75;100.00
41632;BME280;37452;51.938;4.624;2023-02-20T03:19:35;78102.06;;;-142.75;100.00
41632;BME280;37452;51.938;4.624;2023-02-20T03:22:04;78094.19;;;-142.75;100.00
41632;BME280;37452;51.938;4.624;2023-02-20T03:24:33;78109.94;;;-142.75;100.00
41632;BME280;37452;51.938;4.624;2023-02-20T03:27:21;78098.13;;;-142.75;100.00
41632;BME280;37452;51.938;4.624;2023-02-20T03:29:49;78107.97;;;-142.75;100.00
41632;BME280;37452;51.938;4.624;2023-02-20T03:32:17;78094.19;;;-142.75;100.00
41632;BME280;37452;51.938;4.624;2023-02-20T03:35:03;78106.00;;;-142.75;100.00
41632;BME280;37452;51.938;4.624;2023-02-20T03:37:49;78090.25;;;-142.75;100.00
41632;BME280;37452;51.938;4.624;2023-02-20T03:40:35;78082.38;;;-142.75;100.00
41632;BME280;37452;51.938;4.624;2023-02-20T03:43:20;78080.41;;;-142.75;100.00
41632;BME280;37452;51.938;4.624;2023-02-20T03:45:46;78074.50;;;-142.75;100.00
41632;BME280;37452;51.938;4.624;2023-02-20T03:48:19;78078.44;;;-142.75;100.00
41632;BME280;37452;51.938;4.624;2023-02-20T03:50:46;78088.28;;;-142.75;100.00
41632;BME280;37452;51.938;4.624;2023-02-20T03:53:30;78056.78;;;-142.75;100.00
41632;BME280;37452;51.938;4.624;2023-02-20T03:55:59;78054.81;;;-142.75;100.00
41632;BME280;37452;51.938;4.624;2023-02-20T03:58:27;78048.88;;;-142.75;100.00
41632;BME280;37452;51.938;4.624;2023-02-20T04:00:57;78042.97;;;-142.75;100.00
41632;BME280;37452;51.938;4.624;2023-02-20T04:03:27;78031.16;;;-142.75;100.00
41632;BME280;37452;51.938;4.624;2023-02-20T04:05:56;78050.84;;;-142.75;100.00
41632;BME280;37452;51.938;4.624;2023-02-20T04:08:43;78039.03;;;-142.75;100.00
41632;BME280;37452;51.938;4.624;2023-02-20T04:11:18;78044.94;;;-142.75;100.00
41632;BME280;37452;51.938;4.624;2023-02-20T04:13:47;78042.97;;;-142.75;100.00
41632;BME280;37452;51.938;4.624;2023-02-20T04:16:13;78050.84;;;-142.75;100.00
41632;BME280;37452;51.938;4.624;2023-02-20T04:18:39;78029.19;;;-142.75;100.00
41632;BME280;37452;51.938;4.624;2023-02-20T04:21:10;78041.00;;;-142.75;100.00
41632;BME280;37452;51.938;4.624;2023-02-20T04:23:43;78033.13;;;-142.75;100.00
41632;BME280;37452;51.938;4.624;2023-02-20T04:26:17;78039.03;;;-142.75;100.00
41632;BME280;37452;51.938;4.624;2023-02-20T04:28:44;78041.00;;;-142.75;100.00
41632;BME280;37452;51.938;4.624;2023-02-20T04:31:10;78027.22;;;-142.75;100.00
41632;BME280;37452;51.938;4.624;2023-02-20T04:33:37;78031.16;;;-142.75;100.00
41632;BME280;37452;51.938;4.624;2023-02-20T04:36:02;78039.03;;;-142.75;100.00
41632;BME280;37452;51.938;4.624;2023-02-20T04:38:28;78035.09;;;-142.75;100.00
41632;BME280;37452;51.938;4.624;2023-02-20T04:40:53;78041.00;;;-142.75;100.00
41632;BME280;37452;51.938;4.624;2023-02-20T04:43:20;78058.72;;;-142.75;100.00
41632;BME280;37452;51.938;4.624;2023-02-20T04:45:45;78048.88;;;-142.75;100.00
41632;BME280;37452;51.938;4.624;2023-02-20T04:48:10;78062.69;;;-142.75;100.00
41632;BME280;37452;51.938;4.624;2023-02-20T04:50:35;78046.91;;;-142.75;100.00
41632;BME280;37452;51.938;4.624;2023-02-20T04:53:01;78058.72;;;-142.75;100.00
41632;BME280;37452;51.938;4.624;2023-02-20T04:55:26;78056.78;;;-142.75;100.00
41632;BME280;37452;51.938;4.624;2023-02-20T04:57:53;78062.69;;;-142.75;100.00
41632;BME280;37452;51.938;4.624;2023-02-20T05:00:20;78062.69;;;-142.75;100.00
41632;BME280;37452;51.938;4.624;2023-02-20T05:02:46;78062.69;;;-142.75;100.00
41632;BME280;37452;51.938;4.624;2023-02-20T05:05:23;78042.97;;;-142.75;100.00
41632;BME280;37452;51.938;4.624;2023-02-20T05:08:00;78048.88;;;-142.75;100.00
41632;BME280;37452;51.938;4.624;2023-02-20T05:10:27;78044.94;;;-142.75;100.00
41632;BME280;37452;51.938;4.624;2023-02-20T05:12:53;78066.63;;;-142.75;100.00
41632;BME280;37452;51.938;4.624;2023-02-20T05:15:20;78060.72;;;-142.75;100.00
41632;BME280;37452;51.938;4.624;2023-02-20T05:17:45;78064.66;;;-142.75;100.00
41632;BME280;37452;51.938;4.624;2023-02-20T05:20:15;78060.72;;;-142.75;100.00
41632;BME280;37452;51.938;4.624;2023-02-20T05:22:44;78062.69;;;-142.75;100.00
41632;BME280;37452;51.938;4.624;2023-02-20T05:25:09;78066.63;;;-142.75;100.00
41632;BME280;37452;51.938;4.624;2023-02-20T05:27:35;78062.69;;;-142.75;100.00
41632;BME280;37452;51.938;4.624;2023-02-20T05:30:01;78074.50;;;-142.75;100.00
41632;BME280;37452;51.938;4.624;2023-02-20T05:32:28;78064.66;;;-142.75;100.00
41632;BME280;37452;51.938;4.624;2023-02-20T05:34:54;78080.41;;;-142.75;100.00
41632;BME280;37452;51.938;4.624;2023-02-20T05:37:19;78066.63;;;-142.75;100.00
41632;BME280;37452;51.938;4.624;2023-02-20T05:39:46;78068.59;;;-142.75;100.00
41632;BME280;37452;51.938;4.624;2023-02-20T05:42:12;78066.63;;;-142.75;100.00
41632;BME280;37452;51.938;4.624;2023-02-20T05:44:37;78088.28;;;-142.75;100.00
41632;BME280;37452;51.938;4.624;2023-02-20T05:47:03;78076.47;;;-142.75;100.00
41632;BME280;37452;51.938;4.624;2023-02-20T05:49:28;78066.63;;;-142.75;100.00
41632;BME280;37452;51.938;4.624;2023-02-20T05:51:57;78062.69;;;-142.75;100.00
41632;BME280;37452;51.938;4.624;2023-02-20T05:54:23;78062.69;;;-142.75;100.00
41632;BME280;37452;51.938;4.624;2023-02-20T05:56:49;78066.63;;;-142.75;100.00
41632;BME280;37452;51.938;4.624;2023-02-20T05:59:18;78074.50;;;-142.75;100.00
41632;BME280;37452;51.938;4.624;2023-02-20T06:01:44;78078.44;;;-142.75;100.00
41632;BME280;37452;51.938;4.624;2023-02-20T06:04:10;78066.63;;;-142.75;100.00
41632;BME280;37452;51.938;4.624;2023-02-20T06:06:37;78076.47;;;-142.75;100.00
41632;BME280;37452;51.938;4.624;2023-02-20T06:09:05;78084.34;;;-142.75;100.00
41632;BME280;37452;51.938;4.624;2023-02-20T06:11:32;78076.47;;;-142.75;100.00
41632;BME280;37452;51.938;4.624;2023-02-20T06:13:57;78068.59;;;-142.75;100.00
41632;BME280;37452;51.938;4.624;2023-02-20T06:16:24;78066.63;;;-142.75;100.00
41632;BME280;37452;51.938;4.624;2023-02-20T06:18:51;78076.47;;;-142.75;100.00
41632;BME280;37452;51.938;4.624;2023-02-20T06:21:16;78074.50;;;-142.75;100.00
41632;BME280;37452;51.938;4.624;2023-02-20T06:23:42;78066.63;;;-142.75;100.00
41632;BME280;37452;51.938;4.624;2023-02-20T06:26:07;78078.44;;;-142.75;100.00
41632;BME280;37452;51.938;4.624;2023-02-20T06:28:33;78088.28;;;-142.75;100.00
41632;BME280;37452;51.938;4.624;2023-02-20T06:30:59;78090.25;;;-142.75;100.00
41632;BME280;37452;51.938;4.624;2023-02-20T06:33:24;78076.47;;;-142.75;100.00
41632;BME280;37452;51.938;4.624;2023-02-20T06:35:50;78062.69;;;-142.75;100.00
41632;BME280;37452;51.938;4.624;2023-02-20T06:38:15;78082.38;;;-142.75;100.00
41632;BME280;37452;51.938;4.624;2023-02-20T06:40:41;78074.50;;;-142.75;100.00
41632;BME280;37452;51.938;4.624;2023-02-20T06:43:06;78080.41;;;-142.75;100.00
41632;BME280;37452;51.938;4.624;2023-02-20T06:45:31;78080.41;;;-142.75;100.00
41632;BME280;37452;51.938;4.624;2023-02-20T06:47:56;78084.34;;;-142.75;100.00
41632;BME280;37452;51.938;4.624;2023-02-20T06:50:22;78084.34;;;-142.75;100.00
41632;BME280;37452;51.938;4.624;2023-02-20T06:52:47;78078.44;;;-142.75;100.00
41632;BME280;37452;51.938;4.624;2023-02-20T06:55:12;78086.31;;;-142.75;100.00
41632;BME280;37452;51.938;4.624;2023-02-20T06:57:38;78084.34;;;-142.75;100.00
41632;BME280;37452;51.938;4.624;2023-02-20T07:00:04;78080.41;;;-142.75;100.00
41632;BME280;37452;51.938;4.624;2023-02-20T07:02:29;78094.19;;;-142.75;100.00
41632;BME280;37452;51.938;4.624;2023-02-20T07:04:55;78070.56;;;-142.75;100.00
41632;BME280;37452;51.938;4.624;2023-02-20T07:07:20;78086.31;;;-142.75;100.00
41632;BME280;37452;51.938;4.624;2023-02-20T07:09:45;78068.59;;;-142.75;100.00
41632;BME280;37452;51.938;4.624;2023-02-20T07:12:10;78070.56;;;-142.75;100.00
41632;BME280;37452;51.938;4.624;2023-02-20T07:14:36;78072.53;;;-142.75;100.00
41632;BME280;37452;51.938;4.624;2023-02-20T07:17:01;78076.47;;;-142.75;100.00
41632;BME280;37452;51.938;4.624;2023-02-20T07:19:26;78058.72;;;-142.75;100.00
41632;BME280;37452;51.938;4.624;2023-02-20T07:21:52;78070.56;;;-142.75;100.00
41632;BME280;37452;51.938;4.624;2023-02-20T07:24:17;78050.84;;;-142.75;100.00
41632;BME280;37452;51.938;4.624;2023-02-20T07:26:42;78066.63;;;-142.75;100.00
41632;BME280;37452;51.938;4.624;2023-02-20T07:29:07;78046.91;;;-142.75;100.00
41632;BME280;37452;51.938;4.624;2023-02-20T07:31:33;78058.72;;;-142.75;100.00
41632;BME280;37452;51.938;4.624;2023-02-20T07:33:58;78052.81;;;-142.75;100.00
41632;BME280;37452;51.938;4.624;2023-02-20T07:36:24;78056.78;;;-142.75;100.00
41632;BME280;37452;51.938;4.624;2023-02-20T07:38:57;78044.94;;;-142.75;100.00
41632;BME280;37452;51.938;4.624;2023-02-20T07:41:23;78048.88;;;-142.75;100.00
41632;BME280;37452;51.938;4.624;2023-02-20T07:43:49;78050.84;;;-142.75;100.00
41632;BME280;37452;51.938;4.624;2023-02-20T07:46:15;78042.97;;;-142.75;100.00
41632;BME280;37452;51.938;4.624;2023-02-20T07:48:41;78046.91;;;-142.75;100.00
41632;BME280;37452;51.938;4.624;2023-02-20T07:51:06;78050.84;;;-142.75;100.00
41632;BME280;37452;51.938;4.624;2023-02-20T07:53:31;78035.09;;;-142.75;100.00
41632;BME280;37452;51.938;4.624;2023-02-20T07:55:57;78039.03;;;-142.75;100.00
41632;BME280;37452;51.938;4.624;2023-02-20T07:58:22;78029.19;;;-142.75;100.00
41632;BME280;37452;51.938;4.624;2023-02-20T08:00:49;78039.03;;;-142.75;100.00
41632;BME280;37452;51.938;4.624;2023-02-20T08:03:16;78023.28;;;-142.75;100.00
41632;BME280;37452;51.938;4.624;2023-02-20T08:05:41;78039.03;;;-142.75;100.00
41632;BME280;37452;51.938;4.624;2023-02-20T08:08:07;78039.03;;;-142.75;100.00
41632;BME280;37452;51.938;4.624;2023-02-20T08:10:32;78023.28;;;-142.75;100.00
41632;BME280;37452;51.938;4.624;2023-02-20T08:12:57;78019.34;;;-142.75;100.00
41632;BME280;37452;51.938;4.624;2023-02-20T08:15:23;78019.34;;;-142.75;100.00
41632;BME280;37452;51.938;4.624;2023-02-20T08:17:48;78021.31;;;-142.75;100.00
41632;BME280;37452;51.938;4.624;2023-02-20T08:20:14;78025.25;;;-142.75;100.00
41632;BME280;37452;51.938;4.624;2023-02-20T08:22:40;78023.28;;;-142.75;100.00
41632;BME280;37452;51.938;4.624;2023-02-20T08:25:06;78025.25;;;-142.75;100.00
41632;BME280;37452;51.938;4.624;2023-02-20T08:27:31;78013.44;;;-142.75;100.00
41632;BME280;37452;51.938;4.624;2023-02-20T08:29:57;78015.41;;;-142.75;100.00
41632;BME280;37452;51.938;4.624;2023-02-20T08:32:22;78015.41;;;-142.75;100.00
41632;BME280;37452;51.938;4.624;2023-02-20T08:34:48;78021.31;;;-142.75;100.00
41632;BME280;37452;51.938;4.624;2023-02-20T08:37:13;78041.00;;;-142.75;100.00
41632;BME280;37452;51.938;4.624;2023-02-20T08:39:39;78041.00;;;-142.75;100.00
41632;BME280;37452;51.938;4.624;2023-02-20T08:42:05;78035.09;;;-142.75;100.00
41632;BME280;37452;51.938;4.624;2023-02-20T08:44:31;78023.28;;;-142.75;100.00
41632;BME280;37452;51.938;4.624;2023-02-20T08:46:56;78017.38;;;-142.75;100.00
41632;BME280;37452;51.938;4.624;2023-02-20T08:49:21;78031.16;;;-142.75;100.00
41632;BME280;37452;51.938;4.624;2023-02-20T08:51:47;78007.53;;;-142.75;100.00
41632;BME280;37452;51.938;4.624;2023-02-20T08:54:13;78015.41;;;-142.75;100.00
41632;BME280;37452;51.938;4.624;2023-02-20T08:56:40;78015.41;;;-142.75;100.00
41632;BME280;37452;51.938;4.624;2023-02-20T08:59:06;78019.34;;;-142.75;100.00
41632;BME280;37452;51.938;4.624;2023-02-20T09:01:31;78011.47;;;-142.75;100.00
41632;BME280;37452;51.938;4.624;2023-02-20T09:03:56;78003.59;;;-142.75;100.00
41632;BME280;37452;51.938;4.624;2023-02-20T09:06:22;78001.63;;;-142.75;100.00
41632;BME280;37452;51.938;4.624;2023-02-20T09:08:50;78003.59;;;-142.75;100.00
41632;BME280;37452;51.938;4.624;2023-02-20T09:11:16;77987.84;;;-142.75;100.00
41632;BME280;37452;51.938;4.624;2023-02-20T09:13:43;77997.69;;;-142.75;100.00
41632;BME280;37452;51.938;4.624;2023-02-20T09:16:10;77979.97;;;-142.75;100.00
41632;BME280;37452;51.938;4.624;2023-02-20T09:18:35;77983.91;;;-142.75;100.00
41632;BME280;37452;51.938;4.624;2023-02-20T09:21:00;77978.00;;;-142.75;100.00
41632;BME280;37452;51.938;4.624;2023-02-20T09:23:25;77983.91;;;-142.75;100.00
41632;BME280;37452;51.938;4.624;2023-02-20T09:25:51;77981.94;;;-142.75;100.00
41632;BME280;37452;51.938;4.624;2023-02-20T09:28:17;77989.81;;;-142.75;100.00
41632;BME280;37452;51.938;4.624;2023-02-20T09:30:43;77999.66;;;-142.75;100.00
41632;BME280;37452;51.938;4.624;2023-02-20T09:33:08;77983.91;;;-142.75;100.00
41632;BME280;37452;51.938;4.624;2023-02-20T09:35:33;78011.47;;;-142.75;100.00
41632;BME280;37452;51.938;4.624;2023-02-20T09:37:59;78007.53;;;-142.75;100.00
41632;BME280;37452;51.938;4.624;2023-02-20T09:40:27;77995.72;;;-142.75;100.00
41632;BME280;37452;51.938;4.624;2023-02-20T09:43:38;77995.72;;;-142.75;100.00
41632;BME280;37452;51.938;4.624;2023-02-20T09:46:18;77985.88;;;-142.75;100.00
41632;BME280;37452;51.938;4.624;2023-02-20T09:49:06;77995.72;;;-142.75;100.00
41632;BME280;37452;51.938;4.624;2023-02-20T09:51:38;77979.97;;;-142.75;100.00
41632;BME280;37452;51.938;4.624;2023-02-20T09:54:13;77997.69;;;-142.75;100.00
41632;BME280;37452;51.938;4.624;2023-02-20T09:56:43;77995.72;;;-142.75;100.00
41632;BME280;37452;51.938;4.624;2023-02-20T09:59:33;77995.72;;;-142.75;100.00
41632;BME280;37452;51.938;4.624;2023-02-20T10:02:11;77987.84;;;-142.75;100.00
41632;BME280;37452;51.938;4.624;2023-02-20T10:04:42;77987.84;;;-142.75;100.00
41632;BME280;37452;51.938;4.624;2023-02-20T10:09:48;77987.84;;;-142.75;100.00
41632;BME280;37452;51.938;4.624;2023-02-20T10:12:26;77987.84;;;-142.75;100.00
41632;BME280;37452;51.938;4.624;2023-02-20T10:17:46;77972.09;;;-142.75;100.00
41632;BME280;37452;51.938;4.624;2023-02-20T10:22:55;77985.88;;;-142.75;100.00
41632;BME280;37452;51.938;4.624;2023-02-20T10:25:42;77989.81;;;-142.75;100.00
41632;BME280;37452;51.938;4.624;2023-02-20T10:28:13;77995.72;;;-142.75;100.00
41632;BME280;37452;51.938;4.624;2023-02-20T10:35:43;77997.69;;;-142.75;100.00
41632;BME280;37452;51.938;4.624;2023-02-20T10:38:13;77987.84;;;-142.75;100.00
41632;BME280;37452;51.938;4.624;2023-02-20T10:46:04;77983.91;;;-142.75;100.00
41632;BME280;37452;51.938;4.624;2023-02-20T10:48:33;77997.69;;;-142.75;100.00
41632;BME280;37452;51.938;4.624;2023-02-20T10:51:07;77997.69;;;-142.75;100.00
41632;BME280;37452;51.938;4.624;2023-02-20T10:53:47;77970.13;;;-142.75;100.00
41632;BME280;37452;51.938;4.624;2023-02-20T10:56:35;77993.75;;;-142.75;100.00
41632;BME280;37452;51.938;4.624;2023-02-20T11:01:34;77981.94;;;-142.75;100.00
41632;BME280;37452;51.938;4.624;2023-02-20T11:04:05;77991.78;;;-142.75;100.00
41632;BME280;37452;51.938;4.624;2023-02-20T11:06:55;77972.09;;;-142.75;100.00
41632;BME280;37452;51.938;4.624;2023-02-20T11:09:21;77970.13;;;-142.75;100.00
41632;BME280;37452;51.938;4.624;2023-02-20T11:11:51;77948.47;;;-142.75;100.00
41632;BME280;37452;51.938;4.624;2023-02-20T11:14:23;77936.66;;;-142.75;100.00
41632;BME280;37452;51.938;4.624;2023-02-20T11:16:56;77944.53;;;-142.75;100.00
41632;BME280;37452;51.938;4.624;2023-02-20T11:19:32;77944.53;;;-142.75;100.00
41632;BME280;37452;51.938;4.624;2023-02-20T11:22:01;77956.34;;;-142.75;100.00
41632;BME280;37452;51.938;4.624;2023-02-20T11:24:38;77932.72;;;-142.75;100.00
41632;BME280;37452;51.938;4.624;2023-02-20T11:27:13;77928.78;;;-142.75;100.00
41632;BME280;37452;51.938;4.624;2023-02-20T11:32:30;77891.34;;;-142.75;100.00
41632;BME280;37452;51.938;4.624;2023-02-20T11:37:41;77844.09;;;-142.75;100.00
41632;BME280;37452;51.938;4.624;2023-02-20T11:40:22;77855.91;;;-142.75;100.00
41632;BME280;37452;51.938;4.624;2023-02-20T11:42:48;77875.59;;;-142.75;100.00
41632;BME280;37452;51.938;4.624;2023-02-20T11:45:24;77853.94;;;-142.75;100.00
41632;BME280;37452;51.938;4.624;2023-02-20T11:48:12;77869.69;;;-142.75;100.00
41632;BME280;37452;51.938;4.624;2023-02-20T11:50:43;77873.63;;;-142.75;100.00
41632;BME280;37452;51.938;4.624;2023-02-20T11:53:35;77873.63;;;-142.75;100.00
41632;BME280;37452;51.938;4.624;2023-02-20T11:58:32;77922.88;;;-142.75;100.00
41632;BME280;37452;51.938;4.624;2023-02-20T12:00:57;77903.16;;;-142.75;100.00
41632;BME280;37452;51.938;4.624;2023-02-20T12:03:28;77889.38;;;-142.75;100.00
41632;BME280;37452;51.938;4.624;2023-02-20T12:05:54;77885.44;;;-142.75;100.00
41632;BME280;37452;51.938;4.624;2023-02-20T12:08:41;77905.13;;;-142.75;100.00
41632;BME280;37452;51.938;4.624;2023-02-20T12:11:16;77893.31;;;-142.75;100.00
41632;BME280;37452;51.938;4.624;2023-02-20T12:13:47;77887.41;;;-142.75;100.00
41632;BME280;37452;51.938;4.624;2023-02-20T12:22:03;77871.66;;;-142.75;100.00
41632;BME280;37452;51.938;4.624;2023-02-20T12:27:48;77891.34;;;-142.75;100.00
41632;BME280;37452;51.938;4.624;2023-02-20T12:32:57;77855.91;;;-142.75;100.00
41632;BME280;37452;51.938;4.624;2023-02-20T12:35:34;77877.56;;;-142.75;100.00
41632;BME280;37452;51.938;4.624;2023-02-20T12:38:30;77885.44;;;-142.75;100.00
41632;BME280;37452;51.938;4.624;2023-02-20T12:43:52;77879.53;;;-142.75;100.00
41632;BME280;37452;51.938;4.624;2023-02-20T12:49:33;77887.41;;;-142.75;100.00
41632;BME280;37452;51.938;4.624;2023-02-20T13:00:59;77891.34;;;-142.75;100.00
41632;BME280;37452;51.938;4.624;2023-02-20T13:03:24;77869.69;;;-142.75;100.00
41632;BME280;37452;51.938;4.624;2023-02-20T13:05:52;77881.50;;;-142.75;100.00
41632;BME280;37452;51.938;4.624;2023-02-20T13:08:28;77863.78;;;-142.75;100.00
41632;BME280;37452;51.938;4.624;2023-02-20T13:10:59;77871.66;;;-142.75;100.00
41632;BME280;37452;51.938;4.624;2023-02-20T13:13:30;77877.56;;;-142.75;100.00
41632;BME280;37452;51.938;4.624;2023-02-20T13:16:04;77853.94;;;-142.75;100.00
41632;BME280;37452;51.938;4.624;2023-02-20T13:21:09;77871.66;;;-142.75;100.00
41632;BME280;37452;51.938;4.624;2023-02-20T13:23:37;77885.44;;;-142.75;100.00
41632;BME280;37452;51.938;4.624;2023-02-20T13:28:51;77873.63;;;-142.75;100.00
41632;BME280;37452;51.938;4.624;2023-02-20T13:33:51;77861.81;;;-142.75;100.00
41632;BME280;37452;51.938;4.624;2023-02-20T13:36:42;77857.88;;;-142.75;100.00
41632;BME280;37452;51.938;4.624;2023-02-20T13:54:55;77889.38;;;-142.75;100.00
41632;BME280;37452;51.938;4.624;2023-02-20T13:57:21;77877.56;;;-142.75;100.00
41632;BME280;37452;51.938;4.624;2023-02-20T13:59:53;77865.75;;;-142.75;100.00
41632;BME280;37452;51.938;4.624;2023-02-20T14:02:21;77885.44;;;-142.75;100.00
41632;BME280;37452;51.938;4.624;2023-02-20T14:04:57;77861.81;;;-142.75;100.00
41632;BME280;37452;51.938;4.624;2023-02-20T14:07:49;77859.84;;;-142.75;100.00
41632;BME280;37452;51.938;4.624;2023-02-20T14:10:30;77857.88;;;-142.75;100.00
41632;BME280;37452;51.938;4.624;2023-02-20T14:13:09;77867.72;;;-142.75;100.00
41632;BME280;37452;51.938;4.624;2023-02-20T14:18:49;77867.72;;;-142.75;100.00
41632;BME280;37452;51.938;4.624;2023-02-20T14:21:19;77853.94;;;-142.75;100.00
41632;BME280;37452;51.938;4.624;2023-02-20T14:23:49;77871.66;;;-142.75;100.00
41632;BME280;37452;51.938;4.624;2023-02-20T14:26:31;77871.66;;;-142.75;100.00
41632;BME280;37452;51.938;4.624;2023-02-20T14:28:58;77881.50;;;-142.75;100.00